Time;durP1;ratioP1;P1;durP2;ratioP2;P2;SDS_P1;SDS_P2;PMS_P1;PMS_P2;Temp;Humidity;BMP_temperature;BMP_pressure;BME280_temperature;BME280_humidity;BME280_pressure;Samples;Min_cycle;Max_cycle;Signal;HPM_P1;HPM_P2
2022/10/29 00:01:43;;;;;;;71.80;67.85;;;;;;;12.34;100.00;102096.22;5079824;28;20037;-78
2022/10/29 00:04:08;;;;;;;63.72;60.90;;;;;;;12.38;100.00;102106.56;5081520;28;20105;-78
2022/10/29 00:06:34;;;;;;;69.10;65.63;;;;;;;12.36;100.00;102104.03;5080569;28;20399;-78
2022/10/29 00:08:59;;;;;;;66.45;63.35;;;;;;;12.26;100.00;102090.75;5080225;28;20064;-78
2022/10/29 00:11:25;;;;;;;61.63;58.72;;;;;;;12.38;100.00;102107.41;5081861;28;20129;-78
2022/10/29 00:13:56;;;;;;;66.93;63.75;;;;;;;12.31;100.00;102101.78;5087260;28;20529;-78
2022/10/29 00:16:24;;;;;;;68.53;65.68;;;;;;;12.37;100.00;102112.81;5079491;28;20545;-78
2022/10/29 00:18:50;;;;;;;65.90;63.33;;;;;;;12.33;100.00;102114.91;5081446;28;20028;-79
2022/10/29 00:21:18;;;;;;;61.03;58.08;;;;;;;12.29;100.00;102116.13;5080574;28;20051;-79
2022/10/29 00:23:43;;;;;;;63.35;60.17;;;;;;;12.24;100.00;102113.03;5082255;28;20020;-79
2022/10/29 00:26:10;;;;;;;63.70;60.80;;;;;;;12.15;100.00;102106.72;5082036;28;20465;-79
2022/10/29 00:28:35;;;;;;;61.10;57.65;;;;;;;12.27;100.00;102126.84;5063132;28;20028;-78
2022/10/29 00:31:06;;;;;;;64.28;61.03;;;;;;;12.26;100.00;102132.25;5077750;28;20065;-78
2022/10/29 00:33:32;;;;;;;68.32;65.47;;;;;;;12.17;100.00;102111.88;5095238;28;20028;-78
2022/10/29 00:36:03;;;;;;;64.97;62.03;;;;;;;12.18;100.00;102124.97;5081582;28;20031;-78
2022/10/29 00:38:30;;;;;;;62.65;59.90;;;;;;;12.01;100.00;102102.56;5080468;28;20035;-78
2022/10/29 00:40:56;;;;;;;65.78;62.95;;;;;;;11.93;100.00;102099.72;5081845;28;20044;-78
2022/10/29 00:43:23;;;;;;;58.83;56.58;;;;;;;12.02;100.00;102119.28;5079059;28;20495;-78
2022/10/29 00:45:58;;;;;;;63.35;60.38;;;;;;;11.91;100.00;102109.59;5080936;28;20044;-79
2022/10/29 00:48:26;;;;;;;58.78;56.47;;;;;;;11.78;100.00;102096.53;5080546;28;20025;-79
2022/10/29 00:50:53;;;;;;;63.75;60.95;;;;;;;11.95;100.00;102121.59;5088082;28;20030;-79
2022/10/29 00:53:24;;;;;;;64.90;62.17;;;;;;;11.70;100.00;102077.81;5079348;28;20036;-79
2022/10/29 00:55:50;;;;;;;65.33;62.10;;;;;;;11.92;100.00;102114.75;5080594;28;20033;-79
2022/10/29 00:58:15;;;;;;;67.43;64.47;;;;;;;11.89;100.00;102117.66;5079522;28;20414;-79
2022/10/29 01:00:42;;;;;;;56.05;53.45;;;;;;;11.77;100.00;102102.78;5083099;28;20028;-79
2022/10/29 01:03:07;;;;;;;64.60;60.92;;;;;;;11.71;100.00;102098.00;5062868;28;20036;-79
2022/10/29 01:05:34;;;;;;;60.03;57.40;;;;;;;11.83;100.00;102107.56;5079651;28;20033;-79
2022/10/29 01:08:00;;;;;;;62.80;60.13;;;;;;;11.70;100.00;102085.75;5069765;28;20534;-79
2022/10/29 01:10:56;;;;;;;62.70;59.92;;;;;;;11.76;100.00;102094.97;5081677;28;20487;-79
2022/10/29 01:13:48;;;;;;;59.35;57.05;;;;;;;11.71;100.00;102087.41;5084033;28;20029;-79
2022/10/29 01:16:49;;;;;;;60.78;57.97;;;;;;;11.47;100.00;102040.88;5082228;28;20491;-79
2022/10/29 01:19:36;;;;;;;66.50;63.83;;;;;;;11.63;100.00;102087.22;5072426;28;20035;-80
2022/10/29 01:22:39;;;;;;;66.05;63.45;;;;;;;11.56;100.00;102101.91;5091355;28;20086;-80
2022/10/29 01:25:35;;;;;;;60.25;57.00;;;;;;;11.48;100.00;102110.47;5007630;28;20046;-79
2022/10/29 01:28:28;;;;;;;57.92;55.63;;;;;;;11.45;100.00;102110.69;5007827;28;20548;-81
2022/10/29 01:31:04;;;;;;;58.85;56.65;;;;;;;11.45;100.00;102122.13;5005594;28;20033;-79
2022/10/29 01:33:51;;;;;;;57.80;54.25;;;;;;;11.38;100.00;102123.56;5021226;28;20067;-80
2022/10/29 01:36:39;;;;;;;64.53;61.83;;;;;;;11.23;100.00;102096.56;5007170;28;20038;-80
2022/10/29 01:39:42;;;;;;;62.40;60.10;;;;;;;11.24;100.00;102115.94;5021346;28;20097;-79
2022/10/29 01:42:15;;;;;;;64.80;62.40;;;;;;;11.17;100.00;102117.38;5021731;28;20042;-79
2022/10/29 01:45:29;;;;;;;58.00;55.85;;;;;;;11.18;100.00;102103.22;5022494;28;20042;-79
2022/10/29 01:48:00;;;;;;;60.15;57.85;;;;;;;11.08;100.00;102079.31;4952541;28;20051;-80
2022/10/29 01:50:26;;;;;;;62.33;59.95;;;;;;;11.22;100.00;102104.66;4951322;28;20530;-80
2022/10/29 01:52:54;;;;;;;65.97;61.15;;;;;;;11.24;100.00;102103.56;4934377;29;20171;-79
2022/10/29 01:55:28;;;;;;;65.15;62.67;;;;;;;11.16;100.00;102089.28;4952099;28;20039;-79
2022/10/29 01:57:54;;;;;;;59.67;57.35;;;;;;;11.22;100.00;102104.66;4952765;29;20043;-79
2022/10/29 02:00:19;;;;;;;63.28;60.90;;;;;;;11.28;100.00;102096.22;4955458;28;20455;-79
2022/10/29 02:03:22;;;;;;;65.10;62.58;;;;;;;11.32;100.00;102095.84;5011031;28;20050;-79
2022/10/29 02:06:06;;;;;;;68.30;65.63;;;;;;;11.32;100.00;102068.56;4993384;28;20041;-79
2022/10/29 02:08:47;;;;;;;64.00;61.55;;;;;;;11.41;100.00;102056.41;4992909;28;20054;-79
2022/10/29 02:11:25;;;;;;;64.72;62.15;;;;;;;11.33;100.00;102023.50;5009935;28;20040;-79
2022/10/29 02:14:15;;;;;;;79.03;75.95;;;;;;;11.49;100.00;102060.09;5011530;28;20587;-79
2022/10/29 02:16:41;;;;;;;67.07;64.47;;;;;;;11.49;100.00;102068.03;5010890;28;21111;-79
2022/10/29 02:19:06;;;;;;;69.22;66.55;;;;;;;11.50;100.00;102067.06;4994426;28;20040;-80
2022/10/29 02:21:32;;;;;;;62.92;60.53;;;;;;;11.32;100.00;102036.84;5041863;28;20415;-80
2022/10/29 02:23:57;;;;;;;65.82;63.22;;;;;;;11.43;100.00;102054.47;5083914;28;20024;-80
2022/10/29 02:26:22;;;;;;;64.30;61.60;;;;;;;11.28;100.00;102046.84;5085271;28;20024;-80
2022/10/29 02:28:48;;;;;;;69.65;66.85;;;;;;;11.33;100.00;102055.22;5089559;28;20478;-79
2022/10/29 02:31:13;;;;;;;72.70;69.88;;;;;;;11.37;100.00;102055.84;5083285;28;20546;-79
2022/10/29 02:33:39;;;;;;;67.15;64.60;;;;;;;11.27;100.00;102026.66;5082338;28;20049;-80
2022/10/29 02:36:04;;;;;;;76.00;73.10;;;;;;;11.33;100.00;102035.91;5065122;28;20396;-80
2022/10/29 02:38:30;;;;;;;62.63;60.22;;;;;;;11.38;100.00;102036.34;5082706;28;20110;-79
2022/10/29 02:40:55;;;;;;;73.80;71.00;;;;;;;11.52;100.00;102037.88;5084222;28;20101;-79
2022/10/29 02:43:20;;;;;;;68.20;65.35;;;;;;;11.43;100.00;102031.53;5083247;28;20028;-79
2022/10/29 02:45:46;;;;;;;70.72;68.05;;;;;;;11.39;100.00;102038.03;5068137;28;20531;-79
2022/10/29 02:48:11;;;;;;;71.38;68.63;;;;;;;11.45;100.00;102060.47;5064722;28;20029;-79
2022/10/29 02:50:36;;;;;;;66.15;63.58;;;;;;;11.33;100.00;102046.47;5067051;28;20036;-79
2022/10/29 02:53:02;;;;;;;69.30;66.72;;;;;;;11.31;100.00;102041.31;5067062;28;20031;-79
2022/10/29 02:55:27;;;;;;;69.95;67.32;;;;;;;11.40;100.00;102049.44;5082230;28;20115;-79
2022/10/29 02:57:52;;;;;;;69.78;67.10;;;;;;;11.38;100.00;102049.56;5083635;28;20048;-79
2022/10/29 03:00:18;;;;;;;67.88;65.30;;;;;;;11.36;100.00;102043.56;5081503;28;20024;-79
2022/10/29 03:02:43;;;;;;;72.57;69.57;;;;;;;11.32;100.00;102042.13;5080616;28;20036;-78
2022/10/29 03:05:09;;;;;;;71.03;68.13;;;;;;;11.30;100.00;102044.06;5082450;28;20126;-78
2022/10/29 03:07:35;;;;;;;66.88;64.38;;;;;;;11.20;100.00;102022.00;5081312;28;20072;-78
2022/10/29 03:10:05;;;;;;;63.88;61.35;;;;;;;11.24;100.00;102045.41;5079330;28;20483;-79
2022/10/29 03:12:31;;;;;;;67.82;65.07;;;;;;;11.05;100.00;102029.38;5082231;28;20082;-79
2022/10/29 03:14:56;;;;;;;69.22;66.53;;;;;;;10.89;100.00;102008.66;5080736;28;20249;-79
2022/10/29 03:17:22;;;;;;;63.80;61.22;;;;;;;10.99;100.00;102030.69;5079374;28;20565;-79
2022/10/29 03:19:47;;;;;;;70.95;68.18;;;;;;;10.91;100.00;102033.97;5067023;28;20036;-80
2022/10/29 03:22:12;;;;;;;70.97;68.10;;;;;;;10.84;100.00;102034.56;5080335;28;20024;-78
2022/10/29 03:24:38;;;;;;;67.22;63.97;;;;;;;10.93;100.00;102046.22;5082385;28;20032;-79
2022/10/29 03:27:03;;;;;;;61.42;59.13;;;;;;;10.88;100.00;102057.97;5081608;28;20040;-78
2022/10/29 03:29:28;;;;;;;68.18;65.47;;;;;;;10.81;100.00;102037.47;5081486;28;20025;-78
2022/10/29 03:31:54;;;;;;;64.28;61.78;;;;;;;10.81;100.00;102042.75;5083154;28;20468;-78
2022/10/29 03:34:19;;;;;;;66.20;63.40;;;;;;;10.81;100.00;102048.03;5064599;28;20035;-79
2022/10/29 03:36:45;;;;;;;70.47;67.80;;;;;;;10.82;100.00;102040.00;5081959;28;20036;-79
2022/10/29 03:39:10;;;;;;;70.25;67.55;;;;;;;10.69;100.00;102013.72;5081685;28;20059;-79
2022/10/29 03:41:35;;;;;;;65.68;63.05;;;;;;;10.85;100.00;102039.75;5083358;28;20058;-79
2022/10/29 03:44:01;;;;;;;66.68;64.15;;;;;;;10.83;100.00;102027.63;5064952;28;20068;-80
2022/10/29 03:46:26;;;;;;;66.80;64.20;;;;;;;10.65;100.00;102017.56;5081410;28;20028;-79
2022/10/29 03:48:51;;;;;;;69.60;66.95;;;;;;;10.69;100.00;102050.69;5080662;28;20110;-79
2022/10/29 03:51:17;;;;;;;66.55;63.88;;;;;;;10.70;100.00;102043.59;5081463;28;20532;-79
2022/10/29 03:53:42;;;;;;;65.78;62.92;;;;;;;10.62;100.00;102043.38;5080893;28;20563;-79
2022/10/29 03:56:08;;;;;;;68.18;65.53;;;;;;;10.54;100.00;102036.06;5080671;28;20126;-79
2022/10/29 03:58:34;;;;;;;66.70;63.95;;;;;;;10.62;100.00;102049.47;5063898;28;20028;-79
2022/10/29 04:01:05;;;;;;;65.80;63.00;;;;;;;10.49;100.00;102032.94;5084125;28;20086;-79
2022/10/29 04:03:32;;;;;;;66.85;64.13;;;;;;;10.59;100.00;102059.47;5082076;28;20107;-79
2022/10/29 04:06:00;;;;;;;68.07;64.75;;;;;;;10.47;100.00;102040.13;5079912;28;20036;-79
2022/10/29 04:08:25;;;;;;;69.65;66.95;;;;;;;10.55;100.00;102042.19;5079426;28;20040;-79
2022/10/29 04:10:51;;;;;;;69.78;67.03;;;;;;;10.52;100.00;102037.13;5064103;28;20078;-79
2022/10/29 04:13:17;;;;;;;66.88;64.22;;;;;;;10.62;100.00;102048.66;5083425;28;20085;-79
2022/10/29 04:15:43;;;;;;;71.18;68.45;;;;;;;10.52;100.00;102037.13;5087533;28;20025;-79
2022/10/29 04:18:09;;;;;;;67.75;64.97;;;;;;;10.46;100.00;102041.94;5065382;28;20043;-79
2022/10/29 04:20:37;;;;;;;69.75;67.05;;;;;;;10.62;100.00;102064.47;5053949;28;20407;-79
2022/10/29 04:23:02;;;;;;;69.22;66.45;;;;;;;10.63;100.00;102056.44;5083018;28;20029;-79
2022/10/29 04:25:28;;;;;;;69.38;66.20;;;;;;;10.50;100.00;102029.34;5080148;28;20499;-79
2022/10/29 04:27:54;;;;;;;61.75;59.35;;;;;;;10.55;100.00;102027.16;5089506;28;20036;-79
2022/10/29 04:30:20;;;;;;;69.43;66.72;;;;;;;10.67;100.00;102042.06;5062681;28;20118;-80
2022/10/29 04:32:46;;;;;;;72.90;70.00;;;;;;;10.75;100.00;102053.81;5080258;28;20040;-79
2022/10/29 04:35:11;;;;;;;78.35;75.38;;;;;;;10.66;100.00;102050.91;5081340;28;20388;-79
2022/10/29 04:37:36;;;;;;;74.65;71.78;;;;;;;10.42;100.00;102016.72;5080497;28;20126;-79
2022/10/29 04:40:02;;;;;;;78.47;75.00;;;;;;;10.74;100.00;102062.69;5078144;28;20055;-79
2022/10/29 04:42:27;;;;;;;71.57;68.80;;;;;;;10.77;100.00;102063.28;5081408;28;20044;-79
2022/10/29 04:44:53;;;;;;;70.25;67.47;;;;;;;10.78;100.00;102066.75;5078547;28;20039;-79
2022/10/29 04:47:18;;;;;;;66.75;64.22;;;;;;;10.62;100.00;102038.91;5080390;28;20056;-79
2022/10/29 04:49:43;;;;;;;74.72;71.72;;;;;;;10.67;100.00;102049.13;5050385;28;20062;-79
2022/10/29 04:52:09;;;;;;;68.65;66.03;;;;;;;10.79;100.00;102087.75;5083022;28;20024;-79
2022/10/29 04:54:34;;;;;;;71.32;68.57;;;;;;;10.78;100.00;102075.53;5084754;28;20024;-79
2022/10/29 04:57:00;;;;;;;73.20;70.38;;;;;;;10.79;100.00;102073.72;5084384;28;20485;-79
2022/10/29 04:59:25;;;;;;;67.22;64.30;;;;;;;10.75;100.00;102067.84;5082821;28;20073;-79
2022/10/29 05:01:50;;;;;;;67.65;65.10;;;;;;;10.75;100.00;102073.13;5063883;28;20059;-79
2022/10/29 05:04:16;;;;;;;72.10;68.95;;;;;;;10.83;100.00;102073.34;5065430;28;20047;-79
2022/10/29 05:06:41;;;;;;;66.53;62.15;;;;;;;10.83;100.00;102075.16;5081599;28;20118;-79
2022/10/29 05:09:06;;;;;;;69.43;66.85;;;;;;;10.85;100.00;102067.97;5083342;28;20642;-79
2022/10/29 05:11:32;;;;;;;69.78;66.95;;;;;;;10.79;100.00;102065.81;5082488;28;20069;-79
2022/10/29 05:13:57;;;;;;;67.85;65.20;;;;;;;10.91;100.00;102078.03;5064520;28;21190;-79
2022/10/29 05:16:22;;;;;;;68.50;65.88;;;;;;;10.80;100.00;102067.47;5082759;28;20024;-80
2022/10/29 05:18:48;;;;;;;61.50;59.17;;;;;;;10.79;100.00;102050.78;5082101;28;20372;-79
2022/10/29 05:21:14;;;;;;;66.50;63.90;;;;;;;10.79;100.00;102044.69;5080640;28;20043;-79
2022/10/29 05:23:40;;;;;;;72.20;69.43;;;;;;;10.73;100.00;102024.03;5064818;28;20059;-79
2022/10/29 05:26:05;;;;;;;61.75;59.15;;;;;;;10.97;100.00;102064.31;5063747;28;20028;-80
2022/10/29 05:28:31;;;;;;;70.75;68.13;;;;;;;10.89;100.00;102043.00;5083678;28;20036;-80
2022/10/29 05:30:59;;;;;;;65.97;63.30;;;;;;;10.82;100.00;102018.00;5067610;28;20063;-80
2022/10/29 05:33:25;;;;;;;68.20;65.57;;;;;;;10.93;100.00;102040.91;5086783;28;20036;-80
2022/10/29 05:35:51;;;;;;;60.88;58.58;;;;;;;10.89;100.00;102024.50;5050391;28;20025;-81
2022/10/29 05:38:18;;;;;;;71.05;68.35;;;;;;;11.07;100.00;102051.22;5081044;28;20399;-81
2022/10/29 05:40:44;;;;;;;64.30;61.80;;;;;;;10.98;100.00;102029.03;5091165;28;20363;-80
2022/10/29 05:43:16;;;;;;;67.78;65.05;;;;;;;10.89;100.00;102019.22;5083985;28;20036;-80
2022/10/29 05:45:42;;;;;;;63.55;61.05;;;;;;;11.06;100.00;102050.41;5096300;28;20024;-79
2022/10/29 05:48:09;;;;;;;64.47;61.90;;;;;;;11.12;100.00;102049.88;5080084;28;20048;-78
2022/10/29 05:50:35;;;;;;;69.43;66.35;;;;;;;10.93;100.00;102015.38;5079204;28;20114;-79
2022/10/29 05:53:04;;;;;;;70.05;67.40;;;;;;;11.02;100.00;102037.56;5080933;28;20547;-79
2022/10/29 05:55:32;;;;;;;65.97;63.42;;;;;;;11.20;100.00;102065.13;5085879;28;20499;-80
2022/10/29 05:58:00;;;;;;;58.58;56.10;;;;;;;11.22;100.00;102057.91;5082023;28;20630;-80
2022/10/29 06:00:29;;;;;;;70.55;67.75;;;;;;;11.22;100.00;102057.09;5082213;28;20395;-80
2022/10/29 06:02:55;;;;;;;73.68;70.88;;;;;;;11.22;100.00;102057.09;5088985;28;20028;-79
2022/10/29 06:05:20;;;;;;;64.82;62.22;;;;;;;11.09;100.00;102042.22;5081346;28;20466;-80
2022/10/29 06:07:52;;;;;;;63.35;60.72;;;;;;;11.21;100.00;102058.88;5084375;28;20155;-80
2022/10/29 06:10:18;;;;;;;71.10;68.15;;;;;;;11.00;100.00;102037.69;5083484;28;20035;-80
2022/10/29 06:12:43;;;;;;;66.07;63.50;;;;;;;11.25;100.00;102077.97;5065108;28;20028;-80
2022/10/29 06:15:09;;;;;;;63.85;61.38;;;;;;;11.05;100.00;102051.34;5065814;28;20036;-80
2022/10/29 06:17:40;;;;;;;65.03;62.53;;;;;;;11.17;100.00;102081.25;5051507;28;20426;-79
2022/10/29 06:20:06;;;;;;;69.90;67.07;;;;;;;11.09;100.00;102063.34;5082456;28;20025;-79
2022/10/29 06:22:31;;;;;;;63.67;61.30;;;;;;;11.28;100.00;102080.38;5084554;28;20028;-79
2022/10/29 06:24:57;;;;;;;60.97;58.33;;;;;;;11.11;100.00;102057.94;5085291;28;20034;-79
2022/10/29 06:27:22;;;;;;;64.03;61.53;;;;;;;11.26;100.00;102085.78;5068289;28;20134;-79
2022/10/29 06:29:48;;;;;;;62.78;59.95;;;;;;;11.19;100.00;102073.16;5085141;28;20028;-81
2022/10/29 06:32:13;;;;;;;60.13;57.75;;;;;;;11.10;100.00;102054.47;5067003;28;20278;-80
2022/10/29 06:34:38;;;;;;;65.68;62.70;;;;;;;11.09;100.00;102052.78;5069417;28;20178;-80
2022/10/29 06:37:03;;;;;;;61.92;58.55;;;;;;;11.22;100.00;102067.66;5066563;28;20085;-80
2022/10/29 06:39:29;;;;;;;58.40;56.03;;;;;;;11.18;100.00;102053.00;5084772;28;20024;-80
2022/10/29 06:41:54;;;;;;;63.92;61.42;;;;;;;11.29;100.00;102064.38;5069558;28;20454;-80
2022/10/29 06:44:20;;;;;;;62.67;59.72;;;;;;;11.29;100.00;102076.75;5085571;28;20032;-80
2022/10/29 06:46:45;;;;;;;68.47;65.72;;;;;;;11.32;100.00;102074.72;5084355;28;20062;-80
2022/10/29 06:49:10;;;;;;;62.80;60.13;;;;;;;11.24;100.00;102063.91;5084391;28;20517;-80
2022/10/29 06:51:36;;;;;;;73.03;69.70;;;;;;;11.35;100.00;102070.16;5069132;28;20050;-80
2022/10/29 06:54:01;;;;;;;64.68;61.83;;;;;;;11.18;100.00;102030.06;5065594;28;20028;-80
2022/10/29 06:56:27;;;;;;;61.72;58.33;;;;;;;11.37;100.00;102063.75;5081480;28;20346;-80
2022/10/29 06:58:52;;;;;;;67.85;65.10;;;;;;;11.47;100.00;102071.75;5052146;28;20031;-81
2022/10/29 07:01:18;;;;;;;64.90;62.20;;;;;;;11.37;100.00;102065.56;5079987;28;20047;-80
2022/10/29 07:03:43;;;;;;;66.38;61.22;;;;;;;11.46;100.00;102081.50;5049607;28;20047;-80
2022/10/29 07:06:08;;;;;;;65.85;63.22;;;;;;;11.44;100.00;102072.88;5082924;28;20039;-80
2022/10/29 07:08:34;;;;;;;63.80;61.22;;;;;;;11.44;100.00;102078.16;5066722;28;20055;-80
2022/10/29 07:11:01;;;;;;;66.00;61.78;;;;;;;11.36;100.00;102056.78;5068356;28;20024;-80
2022/10/29 07:13:27;;;;;;;62.78;59.38;;;;;;;11.15;100.00;102016.25;5080213;28;20036;-79
2022/10/29 07:15:53;;;;;;;62.38;59.90;;;;;;;11.36;100.00;102054.13;5083322;28;20032;-80
2022/10/29 07:18:18;;;;;;;69.25;66.05;;;;;;;11.30;100.00;102044.06;5066573;28;20419;-81
2022/10/29 07:20:44;;;;;;;69.97;64.28;;;;;;;11.38;100.00;102049.56;5051588;28;20031;-80
2022/10/29 07:23:11;;;;;;;67.72;64.90;;;;;;;11.30;100.00;102050.22;5084169;28;20027;-80
2022/10/29 07:25:37;;;;;;;65.82;63.10;;;;;;;11.46;100.00;102068.28;5083733;28;20020;-79
2022/10/29 07:28:11;;;;;;;59.47;56.90;;;;;;;11.28;100.00;102040.72;5084730;28;20043;-79
2022/10/29 07:30:37;;;;;;;60.25;57.72;;;;;;;11.38;100.00;102057.50;5084863;28;20486;-79
2022/10/29 07:33:02;;;;;;;67.60;64.55;;;;;;;11.47;100.00;102067.31;5082168;28;20039;-79
2022/10/29 07:35:28;;;;;;;60.63;58.08;;;;;;;11.45;100.00;102049.91;5067787;28;20593;-80
2022/10/29 07:38:03;;;;;;;58.63;56.08;;;;;;;11.39;100.00;102035.41;5068411;28;20051;-80
2022/10/29 07:40:29;;;;;;;61.20;58.67;;;;;;;11.61;100.00;102054.78;5090906;28;20070;-80
2022/10/29 07:42:55;;;;;;;61.15;58.60;;;;;;;11.59;100.00;102046.13;5083694;28;20482;-80
2022/10/29 07:45:20;;;;;;;63.90;61.28;;;;;;;11.76;100.00;102056.16;5082449;28;20542;-80
2022/10/29 07:47:46;;;;;;;60.92;58.00;;;;;;;11.84;100.00;102048.38;5073552;28;20395;-79
2022/10/29 07:50:11;;;;;;;61.22;58.65;;;;;;;11.81;100.00;102040.72;5083672;28;20147;-80
2022/10/29 07:52:38;;;;;;;64.85;61.83;;;;;;;11.86;100.00;102035.88;5067586;28;20032;-80
2022/10/29 07:55:04;;;;;;;56.33;53.80;;;;;;;12.02;100.00;102067.22;5084704;28;20477;-80
2022/10/29 07:57:29;;;;;;;60.35;57.40;;;;;;;12.00;100.00;102049.78;5050851;28;20025;-80
2022/10/29 07:59:55;;;;;;;62.25;59.50;;;;;;;12.00;100.00;102052.41;5068039;28;20129;-80
2022/10/29 08:02:20;;;;;;;58.00;55.13;;;;;;;12.13;100.00;102082.19;5066705;28;20036;-80
2022/10/29 08:04:45;;;;;;;62.10;59.28;;;;;;;12.17;100.00;102083.59;5084474;28;20054;-80
2022/10/29 08:07:11;;;;;;;67.55;64.72;;;;;;;12.02;100.00;102063.72;5081976;28;20123;-80
2022/10/29 08:09:36;;;;;;;57.28;54.75;;;;;;;12.20;100.00;102080.69;5052390;28;20099;-80
2022/10/29 08:12:03;;;;;;;63.35;60.45;;;;;;;12.33;100.00;102076.03;5065989;28;20020;-80
2022/10/29 08:14:29;;;;;;;61.55;58.45;;;;;;;12.12;100.00;102031.03;5084289;28;20024;-80
2022/10/29 08:16:54;;;;;;;63.85;61.13;;;;;;;12.41;100.00;102061.28;5064256;28;20436;-80
2022/10/29 08:19:20;;;;;;;61.70;58.90;;;;;;;12.54;100.00;102057.47;5083935;28;20032;-80
2022/10/29 08:21:46;;;;;;;69.20;65.88;;;;;;;12.43;100.00;102048.75;5068455;28;20028;-81
2022/10/29 08:24:11;;;;;;;66.15;62.63;;;;;;;12.54;100.00;102051.31;5085339;28;20035;-81
2022/10/29 08:26:37;;;;;;;62.58;58.83;;;;;;;12.69;100.00;102044.66;5069969;28;20502;-80
2022/10/29 08:29:02;;;;;;;64.60;60.92;;;;;;;12.75;100.00;102033.53;5085080;28;20586;-80
2022/10/29 08:31:28;;;;;;;60.83;58.13;;;;;;;12.76;100.00;102029.94;5084064;28;20561;-80
2022/10/29 08:33:53;;;;;;;65.38;62.00;;;;;;;12.85;100.00;102048.66;5051212;28;20036;-80
2022/10/29 08:36:18;;;;;;;63.80;60.83;;;;;;;12.76;100.00;102035.22;5081578;28;20107;-80
2022/10/29 08:38:46;;;;;;;70.18;66.72;;;;;;;12.78;100.00;102029.78;5081936;28;20024;-80
2022/10/29 08:41:11;;;;;;;67.43;63.75;;;;;;;12.97;100.00;102069.56;5084621;28;20100;-80
2022/10/29 08:43:52;;;;;;;61.78;58.47;;;;;;;12.84;100.00;102068.97;5083429;28;20024;-80
2022/10/29 08:46:23;;;;;;;59.95;56.08;;;;;;;12.94;100.00;102064.56;5083438;28;20036;-80
2022/10/29 08:48:55;;;;;;;57.85;55.10;;;;;;;12.98;100.00;102070.44;5082929;28;20028;-79
2022/10/29 08:51:35;;;;;;;59.03;55.83;;;;;;;13.07;100.00;102077.56;5083928;28;20690;-80
2022/10/29 08:54:01;;;;;;;53.55;50.67;;;;;;;12.90;100.00;102062.31;5078131;28;20081;-81
2022/10/29 08:56:35;;;;;;;50.85;48.22;;;;;;;12.94;100.00;102061.91;5081660;28;20029;-80
2022/10/29 08:59:09;;;;;;;63.08;58.72;;;;;;;13.10;100.00;102063.19;5078279;28;20036;-79
2022/10/29 09:01:35;;;;;;;57.28;54.08;;;;;;;12.97;100.00;102048.38;5081668;28;20391;-81
2022/10/29 09:04:02;;;;;;;62.65;59.45;;;;;;;13.14;100.00;102065.44;5094300;28;20048;-81
2022/10/29 09:06:27;;;;;;;60.17;56.45;;;;;;;13.18;100.00;102061.53;5080507;28;20017;-81
2022/10/29 09:09:11;;;;;;;63.20;59.40;;;;;;;13.24;100.00;102059.28;5082524;28;20029;-79
2022/10/29 09:12:01;;;;;;;60.63;56.78;;;;;;;13.24;100.00;102065.47;5082304;28;20024;-80
2022/10/29 09:14:42;;;;;;;59.38;56.17;;;;;;;13.31;100.00;102060.47;5081519;28;20028;-80
2022/10/29 09:17:32;;;;;;;59.78;55.50;;;;;;;13.40;100.00;102053.50;5082150;28;20024;-79
2022/10/29 09:20:35;;;;;;;65.05;60.75;;;;;;;13.45;100.00;102068.00;5084931;28;20138;-80
2022/10/29 09:23:22;;;;;;;62.13;58.53;;;;;;;13.45;100.00;102083.06;5089202;28;20111;-80
2022/10/29 09:26:01;;;;;;;62.85;58.70;;;;;;;13.39;100.00;102079.16;5081184;28;20032;-80
2022/10/29 09:28:42;;;;;;;63.75;59.55;;;;;;;13.37;100.00;102075.84;5083575;28;20036;-79
2022/10/29 09:31:36;;;;;;;65.57;60.58;;;;;;;13.40;100.00;102064.94;5079941;28;20042;-78
2022/10/29 09:34:22;;;;;;;61.70;57.95;;;;;;;13.45;100.00;102067.16;5089212;28;20139;-79
2022/10/29 09:36:48;;;;;;;63.95;60.08;;;;;;;13.39;100.00;102055.28;5083651;28;20036;-79
2022/10/29 09:39:23;;;;;;;64.80;60.67;;;;;;;13.40;100.00;102056.97;5063997;28;20508;-79
2022/10/29 09:41:52;;;;;;;65.10;61.20;;;;;;;13.46;100.00;102053.78;5087354;28;20118;-79
2022/10/29 09:44:24;;;;;;;62.25;58.00;;;;;;;13.54;100.00;102056.56;5076083;28;20032;-78
2022/10/29 09:47:14;;;;;;;65.80;62.33;;;;;;;13.58;100.00;102057.94;5081187;28;20067;-79
2022/10/29 09:50:11;;;;;;;62.13;58.17;;;;;;;13.62;100.00;102041.75;5086146;28;20040;-79
2022/10/29 09:52:39;;;;;;;58.58;55.40;;;;;;;13.63;100.00;102031.03;5074659;28;20047;-78
2022/10/29 09:55:10;;;;;;;64.50;59.95;;;;;;;13.67;100.00;102028.91;5077641;28;20048;-79
2022/10/29 09:57:35;;;;;;;62.33;58.22;;;;;;;13.83;100.00;102047.75;5087929;28;20472;-79
2022/10/29 10:00:05;;;;;;;67.57;62.85;;;;;;;13.85;100.00;102026.34;5064402;28;20039;-80
2022/10/29 10:02:39;;;;;;;64.40;60.58;;;;;;;13.85;100.00;102021.91;5084525;28;20516;-79
2022/10/29 10:05:11;;;;;;;77.47;72.28;;;;;;;13.85;100.00;102011.28;5089484;28;20016;-79
2022/10/29 10:07:36;;;;;;;67.50;62.63;;;;;;;13.96;100.00;102023.56;5079298;28;20389;-79
2022/10/29 10:10:05;;;;;;;70.38;65.75;;;;;;;14.00;100.00;102024.94;5081542;28;20039;-79
2022/10/29 10:12:36;;;;;;;68.13;63.50;;;;;;;13.95;100.00;102014.75;5077969;28;20785;-79
2022/10/29 10:15:27;;;;;;;70.18;64.63;;;;;;;13.81;100.00;101987.84;5080407;28;20040;-79
2022/10/29 10:18:17;;;;;;;63.40;59.28;;;;;;;13.99;100.00;102013.47;5078597;28;20391;-79
2022/10/29 10:20:59;;;;;;;61.55;56.83;;;;;;;14.05;100.00;102008.59;5079680;28;20040;-79
2022/10/29 10:23:26;;;;;;;60.85;57.05;;;;;;;13.95;100.00;101998.00;5079637;28;20059;-78
2022/10/29 10:25:56;;;;;;;67.05;62.72;;;;;;;13.99;100.00;101986.94;5079664;28;20025;-78
2022/10/29 10:28:29;;;;;;;59.90;56.25;;;;;;;14.17;100.00;101994.16;5078131;28;20054;-79
2022/10/29 10:31:11;;;;;;;66.45;62.50;;;;;;;14.43;100.00;101998.78;5079204;28;20056;-79
2022/10/29 10:33:53;;;;;;;65.82;62.20;;;;;;;14.67;100.00;101985.81;5086972;28;20081;-79
2022/10/29 10:36:24;;;;;;;70.35;66.75;;;;;;;15.20;100.00;101981.56;5077352;28;20020;-79
2022/10/29 10:38:55;;;;;;;65.60;61.03;;;;;;;15.38;100.00;101976.22;5080624;28;20032;-79
2022/10/29 10:41:29;;;;;;;59.53;55.28;;;;;;;15.12;100.00;101963.69;5080647;28;20024;-79
2022/10/29 10:44:00;;;;;;;64.72;60.30;;;;;;;15.13;100.00;101949.41;5087702;28;20025;-79
2022/10/29 10:46:32;;;;;;;68.45;64.18;;;;;;;15.37;100.00;101963.88;5079747;28;20029;-79
2022/10/29 10:49:12;;;;;;;63.22;59.25;;;;;;;15.18;100.00;101947.13;5077188;28;20019;-79
2022/10/29 10:51:42;;;;;;;59.53;56.25;;;;;;;15.28;100.00;101967.47;5084611;28;20033;-79
2022/10/29 10:54:32;;;;;;;57.63;53.75;;;;;;;15.22;100.00;101971.56;5083400;28;20107;-79
2022/10/29 10:57:03;;;;;;;56.90;53.33;;;;;;;15.07;100.00;101962.47;5081092;28;20028;-79
2022/10/29 10:59:40;;;;;;;61.67;58.15;;;;;;;15.08;100.00;101937.56;5085213;28;20028;-78
2022/10/29 11:02:33;;;;;;;57.33;53.47;;;;;;;15.17;100.00;101942.78;5077590;28;20112;-78
2022/10/29 11:05:17;;;;;;;56.15;52.83;;;;;;;15.20;100.00;101939.84;5077083;28;20033;-78
2022/10/29 11:08:33;;;;;;;59.75;55.97;;;;;;;15.46;100.00;101936.38;5080288;28;20052;-78
2022/10/29 11:11:18;;;;;;;62.20;58.15;;;;;;;15.68;100.00;101926.19;5068841;28;20525;-78
2022/10/29 11:13:45;;;;;;;58.70;54.95;;;;;;;15.74;100.00;101920.28;5076440;28;20114;-78
2022/10/29 11:16:37;;;;;;;56.10;52.55;;;;;;;15.69;100.00;101917.22;5076599;28;20028;-78